Time;durP1;ratioP1;P1;durP2;ratioP2;P2;SDS_P1;SDS_P2;PMS_P1;PMS_P2;Temp;Humidity;BMP_temperature;BMP_pressure;BME280_temperature;BME280_humidity;BME280_pressure;Samples;Min_cycle;Max_cycle;Signal;HPM_P1;HPM_P2
2022/08/03 00:02:20;;;;;;;1999.90;999.90;;;;;;;19.67;100.00;95024.31;5098433;28;20187;-64
2022/08/03 00:04:46;;;;;;;1999.90;999.90;;;;;;;19.64;100.00;95007.84;5098156;28;20199;-67
2022/08/03 00:07:11;;;;;;;1999.90;999.90;;;;;;;19.64;100.00;94986.47;5097985;28;20195;-70
2022/08/03 00:09:36;;;;;;;1999.90;999.90;;;;;;;19.62;100.00;94983.38;5097906;28;20208;-65
2022/08/03 00:12:02;;;;;;;1999.90;999.90;;;;;;;19.56;100.00;94995.59;5098102;28;20191;-63
2022/08/03 00:14:27;;;;;;;1999.90;999.90;;;;;;;19.51;100.00;95010.84;5115649;28;20208;-59
2022/08/03 00:16:53;;;;;;;1999.90;999.90;;;;;;;19.48;100.00;95009.00;5097284;28;20252;-58
2022/08/03 00:19:18;;;;;;;1999.90;999.90;;;;;;;19.34;100.00;94998.66;5097832;28;20222;-62
2022/08/03 00:21:43;;;;;;;1999.90;999.90;;;;;;;19.26;100.00;94983.59;5097924;28;20274;-58
2022/08/03 00:24:09;;;;;;;1999.90;999.90;;;;;;;19.16;100.00;94957.91;5097673;28;20222;-61
2022/08/03 00:26:34;;;;;;;1999.90;999.90;;;;;;;19.14;100.00;94934.72;5097609;28;20252;-59
2022/08/03 00:29:00;;;;;;;1999.90;999.90;;;;;;;19.19;100.00;94934.06;5097278;28;20192;-66
2022/08/03 00:31:25;;;;;;;1999.90;999.90;;;;;;;19.17;100.00;94940.06;5098062;28;20175;-64
2022/08/03 00:33:50;;;;;;;1999.90;999.90;;;;;;;19.15;100.00;94936.22;5097071;28;20235;-59
2022/08/03 00:36:16;;;;;;;1999.90;999.90;;;;;;;19.18;100.00;94935.31;5097137;28;20274;-59
2022/08/03 00:38:41;;;;;;;1999.90;999.90;;;;;;;19.14;100.00;94926.41;5097433;28;20200;-60
2022/08/03 00:41:06;;;;;;;1999.90;999.90;;;;;;;19.14;100.00;94929.94;5097124;28;20247;-59
2022/08/03 00:43:32;;;;;;;1999.90;999.90;;;;;;;19.15;100.00;94925.16;5097211;28;20203;-59
2022/08/03 00:45:57;;;;;;;1999.90;999.90;;;;;;;19.12;100.00;94918.56;5097461;28;20195;-59
2022/08/03 00:48:24;;;;;;;1999.90;999.90;;;;;;;19.06;100.00;94911.38;5096783;28;20180;-60
2022/08/03 00:50:49;;;;;;;1999.90;999.90;;;;;;;19.01;100.00;94878.78;5097010;28;20188;-66
2022/08/03 00:53:16;;;;;;;1999.90;999.90;;;;;;;19.01;100.00;94873.25;5097293;28;20210;-67
2022/08/03 00:55:42;;;;;;;1999.90;999.90;;;;;;;18.97;100.00;94861.59;5096918;28;20251;-63
2022/08/03 00:58:09;;;;;;;1999.90;999.90;;;;;;;18.93;100.00;94861.00;5096849;28;20180;-67
2022/08/03 01:00:38;;;;;;;1999.90;999.90;;;;;;;18.87;100.00;94844.28;5096998;28;20267;-70
2022/08/03 01:03:08;;;;;;;1999.90;999.90;;;;;;;18.84;100.00;94830.63;5096879;28;20191;-68
2022/08/03 01:05:51;;;;;;;1999.90;999.90;;;;;;;18.77;100.00;94817.91;5096496;28;20183;-62
2022/08/03 01:08:41;;;;;;;1999.90;999.90;;;;;;;18.78;100.00;94799.28;5096692;28;20183;-67
2022/08/03 01:11:46;;;;;;;1999.90;999.90;;;;;;;18.73;100.00;94786.84;5096961;28;20274;-64
2022/08/03 01:14:31;;;;;;;1999.90;999.90;;;;;;;18.73;100.00;94766.75;5096330;28;20222;-63
2022/08/03 01:17:35;;;;;;;1999.90;999.90;;;;;;;18.66;100.00;94756.03;5096401;28;20192;-66
2022/08/03 01:20:03;;;;;;;1999.90;999.90;;;;;;;18.57;100.00;94729.19;5113845;28;20183;-64
2022/08/03 01:22:48;;;;;;;1999.90;999.90;;;;;;;18.46;100.00;94719.88;5096753;28;20274;-64
2022/08/03 01:25:33;;;;;;;1999.90;999.90;;;;;;;18.42;100.00;94694.41;5097115;28;20215;-60
2022/08/03 01:28:41;;;;;;;1999.90;999.90;;;;;;;18.41;100.00;94688.13;5096652;28;20187;-68
2022/08/03 01:31:10;;;;;;;1999.90;999.90;;;;;;;18.40;100.00;94681.03;5096459;28;20199;-68
2022/08/03 01:33:45;;;;;;;1999.90;999.90;;;;;;;18.40;100.00;94694.13;5096138;28;20207;-65
2022/08/03 01:36:18;;;;;;;1999.90;999.90;;;;;;;18.38;100.00;94682.75;5096878;28;20195;-68
2022/08/03 01:38:49;;;;;;;1999.90;999.90;;;;;;;18.35;100.00;94678.16;5096274;28;20183;-66
2022/08/03 01:41:20;;;;;;;1999.90;999.90;;;;;;;18.27;100.00;94660.38;5095906;28;20209;-65
2022/08/03 01:43:48;;;;;;;1999.90;999.90;;;;;;;18.25;100.00;94651.81;5096875;28;20192;-60
2022/08/03 01:46:16;;;;;;;1999.90;999.90;;;;;;;18.26;100.00;94648.56;5096901;28;20194;-62
2022/08/03 01:48:43;;;;;;;1999.90;999.90;;;;;;;18.25;100.00;94640.75;5095963;28;20184;-71
2022/08/03 01:51:10;;;;;;;1999.90;999.90;;;;;;;18.24;100.00;94633.66;5096025;28;20207;-67
2022/08/03 01:53:41;;;;;;;1999.90;999.90;;;;;;;18.16;100.00;94610.38;5096320;28;20203;-72
2022/08/03 01:56:08;;;;;;;1999.90;999.90;;;;;;;18.11;100.00;94608.28;5096413;28;20187;-63
2022/08/03 01:58:36;;;;;;;1999.90;999.90;;;;;;;18.04;100.00;94583.75;5096039;28;20194;-66
2022/08/03 02:01:03;;;;;;;1999.90;999.90;;;;;;;18.02;100.00;94555.81;5095967;28;20195;-61
2022/08/03 02:03:32;;;;;;;1999.90;999.90;;;;;;;18.04;100.00;94542.31;5096099;28;20187;-61
2022/08/03 02:06:00;;;;;;;1999.90;999.90;;;;;;;17.99;100.00;94529.16;5096472;28;20182;-71
2022/08/03 02:08:27;;;;;;;1999.90;999.90;;;;;;;17.92;100.00;94515.69;5098288;28;20199;-66
2022/08/03 02:10:56;;;;;;;1999.90;999.90;;;;;;;17.92;100.00;94507.41;5099807;28;20195;-71
2022/08/03 02:13:23;;;;;;;1999.90;999.90;;;;;;;17.89;100.00;94513.88;5099473;28;20199;-68
2022/08/03 02:15:51;;;;;;;1999.90;999.90;;;;;;;17.74;100.00;94496.47;5099841;28;20194;-64
2022/08/03 02:18:18;;;;;;;1999.90;999.90;;;;;;;17.60;100.00;94488.91;5099636;28;20237;-65
2022/08/03 02:20:45;;;;;;;1999.90;999.90;;;;;;;17.63;100.00;94479.69;5099470;28;20183;-62
2022/08/03 02:23:10;;;;;;;1999.90;999.90;;;;;;;17.69;100.00;94475.00;5099390;28;20261;-70
2022/08/03 02:25:44;;;;;;;1999.90;999.90;;;;;;;17.71;100.00;94476.09;5099342;28;20199;-62
2022/08/03 02:28:16;;;;;;;1999.90;999.90;;;;;;;17.72;100.00;94490.66;5099290;28;20240;-63
2022/08/03 02:30:46;;;;;;;1999.90;999.90;;;;;;;17.73;100.00;94500.44;5099876;28;20176;-66
2022/08/03 02:33:18;;;;;;;1999.90;999.90;;;;;;;17.70;100.00;94499.41;5099101;28;20203;-66
2022/08/03 02:35:47;;;;;;;1999.90;999.90;;;;;;;17.70;100.00;94499.41;5099663;28;20194;-64
2022/08/03 02:38:15;;;;;;;1999.90;999.90;;;;;;;17.72;100.00;94504.47;5099095;28;20180;-63
2022/08/03 02:40:44;;;;;;;1999.90;999.90;;;;;;;17.71;100.00;94505.69;5117166;28;20184;-61
2022/08/03 02:43:19;;;;;;;1999.90;999.90;;;;;;;17.72;100.00;94493.41;5099003;28;20176;-66
2022/08/03 02:45:47;;;;;;;1999.90;999.90;;;;;;;17.73;100.00;94497.69;5098787;28;20236;-67
2022/08/03 02:48:24;;;;;;;1999.90;999.90;;;;;;;17.69;100.00;94506.16;5099353;28;20194;-67
2022/08/03 02:50:55;;;;;;;1999.90;999.90;;;;;;;17.68;100.00;94493.59;5099080;28;20237;-66
2022/08/03 02:53:22;;;;;;;1999.90;999.90;;;;;;;17.65;100.00;94482.72;5099512;28;20203;-68
2022/08/03 02:55:49;;;;;;;1999.90;999.90;;;;;;;17.68;100.00;94476.25;5098844;28;20184;-66
2022/08/03 02:58:19;;;;;;;1999.90;999.90;;;;;;;17.72;100.00;94474.06;5098975;28;20184;-60
2022/08/03 03:00:46;;;;;;;1999.90;999.90;;;;;;;17.70;100.00;94490.38;5098961;28;20191;-63
2022/08/03 03:03:13;;;;;;;1999.90;999.90;;;;;;;17.69;100.00;94486.84;5098711;28;20188;-63
2022/08/03 03:05:40;;;;;;;1999.90;999.90;;;;;;;17.68;100.00;94484.53;5098449;28;20278;-63
2022/08/03 03:08:06;;;;;;;1999.90;999.90;;;;;;;17.66;100.00;94478.75;5115520;28;20188;-65
2022/08/03 03:10:31;;;;;;;1999.90;999.90;;;;;;;17.63;100.00;94479.69;5098785;28;20207;-63
2022/08/03 03:12:58;;;;;;;1999.90;999.90;;;;;;;17.56;100.00;94463.47;5098460;28;20187;-62
2022/08/03 03:15:26;;;;;;;1999.90;999.90;;;;;;;17.59;100.00;94457.75;5098434;28;20320;-61
2022/08/03 03:17:52;;;;;;;1999.90;999.90;;;;;;;17.48;100.00;94451.25;5098507;28;20202;-67
2022/08/03 03:20:20;;;;;;;1999.90;999.90;;;;;;;17.44;100.00;94432.09;5097528;28;20271;-66
2022/08/03 03:22:47;;;;;;;1999.90;999.90;;;;;;;17.42;100.00;94425.50;5098325;28;20183;-66
2022/08/03 03:25:14;;;;;;;1999.90;999.90;;;;;;;17.44;100.00;94414.78;5098340;28;20197;-69
2022/08/03 03:27:39;;;;;;;1999.90;999.90;;;;;;;17.42;100.00;94412.47;5098681;28;20195;-66
2022/08/03 03:30:05;;;;;;;1999.90;999.90;;;;;;;17.45;100.00;94416.28;5098452;28;20196;-65
2022/08/03 03:32:31;;;;;;;1999.90;999.90;;;;;;;17.44;100.00;94417.53;5098666;28;20191;-65
2022/08/03 03:34:59;;;;;;;1999.90;999.90;;;;;;;17.42;100.00;94417.22;5098195;28;20215;-62
2022/08/03 03:37:25;;;;;;;1999.90;999.90;;;;;;;17.45;100.00;94408.00;5098255;28;20240;-74
2022/08/03 03:39:53;;;;;;;1999.90;999.90;;;;;;;17.41;100.00;94407.41;5098002;28;20187;-66
2022/08/03 03:42:19;;;;;;;1999.90;999.90;;;;;;;17.38;100.00;94397.28;5098294;28;20275;-71
2022/08/03 03:44:44;;;;;;;1999.90;999.90;;;;;;;17.37;100.00;94384.75;5097610;28;20207;-69
2022/08/03 03:47:09;;;;;;;1999.90;999.90;;;;;;;17.31;100.00;94387.38;5097780;28;20180;-65
2022/08/03 03:49:35;;;;;;;1999.90;999.90;;;;;;;17.22;100.00;94378.41;5097757;28;20272;-69
2022/08/03 03:52:01;;;;;;;1999.90;999.90;;;;;;;17.04;100.00;94367.50;5097629;28;20192;-63
2022/08/03 03:54:37;;;;;;;1999.90;999.90;;;;;;;17.03;100.00;94338.34;5097952;28;20214;-69
2022/08/03 03:57:02;;;;;;;1999.90;999.90;;;;;;;17.07;100.00;94316.88;5097995;28;20194;-69
2022/08/03 03:59:28;;;;;;;1999.90;999.90;;;;;;;17.06;100.00;94315.34;5097840;28;20282;-68
2022/08/03 04:01:53;;;;;;;1999.90;999.90;;;;;;;17.02;100.00;94312.00;5097949;28;20187;-65
2022/08/03 04:12:33;;;;;;;1999.90;999.90;;;;;;;18.16;100.00;94401.09;5115950;28;20203;-69
2022/08/03 04:15:00;;;;;;;1999.90;999.90;;;;;;;18.54;100.00;94497.81;5097142;28;20257;-61
2022/08/03 04:17:28;;;;;;;1999.90;999.90;;;;;;;18.93;100.00;94587.00;5115534;28;20175;-61
2022/08/03 04:19:54;;;;;;;1999.90;999.90;;;;;;;19.23;100.00;94663.31;5097688;28;20191;-61
2022/08/03 04:22:28;;;;;;;1999.90;999.90;;;;;;;19.50;100.00;94754.47;5097274;28;20188;-60
2022/08/03 04:25:05;;;;;;;1999.90;999.90;;;;;;;19.72;100.00;94810.28;5097196;28;20184;-60
2022/08/03 04:27:39;;;;;;;1999.90;999.90;;;;;;;20.12;100.00;94865.97;5097363;28;20251;-60
2022/08/03 04:30:05;;;;;;;1999.90;999.90;;;;;;;20.47;100.00;94913.97;5096862;28;20229;-67
2022/08/03 04:32:32;;;;;;;1999.90;999.90;;;;;;;20.73;100.00;94962.13;5097067;28;20219;-59
2022/08/03 04:34:58;;;;;;;1999.90;999.90;;;;;;;20.87;100.00;95014.09;5097066;28;20204;-60
2022/08/03 04:37:46;;;;;;;1999.90;999.90;;;;;;;21.21;100.00;95066.22;5096860;28;20207;-58
2022/08/03 04:40:24;;;;;;;1999.90;999.90;;;;;;;21.41;100.00;95119.09;5097489;28;20195;-62
2022/08/03 04:42:52;;;;;;;1999.90;999.90;;;;;;;21.58;100.00;95134.03;5097035;28;20191;-61
2022/08/03 04:45:19;;;;;;;1999.90;999.90;;;;;;;21.73;100.00;95162.63;5097064;28;20183;-60
2022/08/03 04:47:46;;;;;;;1999.90;999.90;;;;;;;21.67;100.00;95163.75;5096834;28;20202;-64
2022/08/03 04:50:12;;;;;;;1999.90;999.90;;;;;;;21.94;100.00;95172.56;5113595;28;20266;-70
2022/08/03 04:52:37;;;;;;;1999.90;999.90;;;;;;;21.88;100.00;95185.59;5096685;28;20184;-63
2022/08/03 04:55:03;;;;;;;1999.90;999.90;;;;;;;21.97;100.00;95188.25;5096650;28;20218;-64
2022/08/03 04:57:29;;;;;;;1999.90;999.90;;;;;;;22.04;100.00;95201.78;5096596;28;20195;-62
2022/08/03 04:59:55;;;;;;;1999.90;999.90;;;;;;;22.13;100.00;95198.13;5096983;28;20187;-64
2022/08/03 05:02:20;;;;;;;1999.90;999.90;;;;;;;22.36;100.00;95225.81;5096586;28;20187;-65
2022/08/03 05:04:46;;;;;;;1999.90;999.90;;;;;;;22.66;100.00;95242.47;5096618;28;20202;-70
2022/08/03 05:07:12;;;;;;;1999.90;999.90;;;;;;;23.02;100.00;95269.78;5096832;28;20188;-60
2022/08/03 05:09:38;;;;;;;1999.90;999.90;;;;;;;23.29;100.00;95278.53;5096524;28;20229;-61
2022/08/03 05:12:05;;;;;;;1999.90;999.90;;;;;;;23.69;100.00;95302.81;5096441;28;20192;-60
2022/08/03 05:14:30;;;;;;;1999.90;999.90;;;;;;;24.03;100.00;95335.41;5096409;28;20241;-63
2022/08/03 05:16:55;;;;;;;1999.90;999.90;;;;;;;24.46;100.00;95345.47;5096214;28;20192;-63
2022/08/03 05:19:21;;;;;;;1999.90;999.90;;;;;;;24.80;100.00;95358.50;5096830;28;20191;-59
2022/08/03 05:21:46;;;;;;;1999.90;999.90;;;;;;;25.11;100.00;95366.84;5096973;28;20184;-62
2022/08/03 05:24:11;;;;;;;1999.90;999.90;;;;;;;25.38;100.00;95379.50;5096359;28;20251;-63
2022/08/03 05:26:37;;;;;;;1999.90;999.90;;;;;;;25.63;100.00;95384.19;5096281;28;20194;-63
2022/08/03 05:29:02;;;;;;;1999.90;999.90;;;;;;;25.94;100.00;95392.47;5096394;28;20284;-63
2022/08/03 05:31:28;;;;;;;1999.90;999.90;;;;;;;26.74;100.00;95398.06;5096180;28;20184;-61
2022/08/03 05:33:53;;;;;;;1999.90;999.90;;;;;;;27.37;100.00;95401.88;5114130;28;20212;-61
2022/08/03 05:36:19;;;;;;;1999.90;999.90;;;;;;;27.96;97.67;95413.47;5096430;28;20187;-62
2022/08/03 05:38:44;;;;;;;1999.90;999.90;;;;;;;27.90;94.80;95412.72;5096275;28;20196;-60
2022/08/03 05:41:09;;;;;;;1999.90;999.90;;;;;;;28.49;88.06;95422.69;5095698;28;20214;-61
2022/08/03 05:43:35;;;;;;;1999.90;999.90;;;;;;;28.19;87.61;95426.13;5095295;28;20209;-71
2022/08/03 05:46:00;;;;;;;1999.90;999.90;;;;;;;27.94;90.63;95424.44;5095947;28;20176;-62
2022/08/03 05:48:25;;;;;;;1999.90;999.90;;;;;;;28.83;82.32;95435.25;5095881;28;20183;-59
2022/08/03 05:50:51;;;;;;;1999.90;999.90;;;;;;;29.02;81.51;95430.56;5095664;28;20195;-62
2022/08/03 05:53:16;;;;;;;1999.90;999.90;;;;;;;29.44;78.11;95427.09;5095976;28;20204;-60
2022/08/03 05:55:41;;;;;;;1999.90;999.90;;;;;;;28.96;79.64;95432.59;5096584;28;20180;-58
2022/08/03 05:58:07;;;;;;;1999.90;999.90;;;;;;;30.13;72.69;95431.00;5096300;28;20207;-58
2022/08/03 06:00:32;;;;;;;1999.90;999.90;;;;;;;30.36;71.34;95426.63;5095987;28;20192;-60
2022/08/03 06:02:57;;;;;;;1999.90;999.90;;;;;;;31.42;66.28;95430.19;5095722;28;20194;-60
2022/08/03 06:05:25;;;;;;;1999.90;999.90;;;;;;;31.64;63.64;95435.44;5095766;28;20203;-64
2022/08/03 06:07:51;;;;;;;1999.90;999.90;;;;;;;31.67;63.27;95444.91;5095896;28;20192;-62
2022/08/03 06:10:16;;;;;;;1999.90;999.90;;;;;;;32.30;60.24;95445.50;5095741;28;20277;-64
2022/08/03 06:12:43;;;;;;;1999.90;999.90;;;;;;;31.72;62.08;95450.44;5096027;28;20179;-68
2022/08/03 06:15:09;;;;;;;1999.90;999.90;;;;;;;32.50;57.58;95453.34;5095592;28;20203;-60
2022/08/03 06:17:43;;;;;;;1999.90;999.90;;;;;;;32.71;56.70;95451.34;5095739;28;20191;-63
2022/08/03 06:20:10;;;;;;;1999.90;999.90;;;;;;;33.24;54.44;95449.88;5096461;28;20179;-64
2022/08/03 06:22:35;;;;;;;1999.90;999.90;;;;;;;32.88;53.91;95454.59;5095500;28;20251;-61
2022/08/03 06:25:00;;;;;;;1999.90;999.90;;;;;;;32.55;54.91;95449.63;5095645;28;20216;-62
2022/08/03 06:27:26;;;;;;;1999.90;999.90;;;;;;;33.04;53.44;95453.44;5095929;28;20172;-62
2022/08/03 06:29:51;;;;;;;1999.90;999.90;;;;;;;33.27;52.82;95457.28;5095654;28;20187;-63
2022/08/03 06:32:17;;;;;;;1999.90;999.90;;;;;;;33.61;51.17;95460.81;5095659;28;20168;-60
2022/08/03 06:34:42;;;;;;;1999.90;999.90;;;;;;;32.96;53.72;95466.75;5095503;28;20203;-60
2022/08/03 06:37:07;;;;;;;1999.90;999.90;;;;;;;34.35;48.48;95449.88;5095423;28;20179;-69
2022/08/03 06:39:33;;;;;;;1999.90;999.90;;;;;;;34.70;46.08;95460.47;5095892;28;20212;-61
2022/08/03 06:41:58;;;;;;;1999.90;999.90;;;;;;;34.58;45.17;95465.69;5095788;28;20176;-67
2022/08/03 06:44:24;;;;;;;1999.90;999.90;;;;;;;34.12;46.33;95461.03;5095519;28;20179;-65
2022/08/03 06:46:50;;;;;;;1999.90;999.90;;;;;;;35.06;43.60;95461.19;5095315;28;20267;-63
2022/08/03 06:49:15;;;;;;;1999.90;999.90;;;;;;;35.42;42.72;95464.69;5095351;28;20261;-63
2022/08/03 06:51:40;;;;;;;1999.90;999.90;;;;;;;35.23;42.99;95458.56;5095357;28;20192;-64
2022/08/03 06:54:06;;;;;;;1999.90;999.90;;;;;;;35.33;42.93;95462.41;5096792;28;20200;-61
2022/08/03 06:56:32;;;;;;;1999.90;999.90;;;;;;;35.54;41.61;95460.16;5099337;28;20183;-61
2022/08/03 06:58:57;;;;;;;1999.90;999.90;;;;;;;35.70;41.32;95461.69;5098727;28;20188;-65
2022/08/03 07:01:22;;;;;;;1999.90;999.90;;;;;;;36.06;41.03;95462.28;5098723;28;20184;-67
2022/08/03 07:03:48;;;;;;;1999.90;999.90;;;;;;;36.47;38.92;95474.00;5098783;28;20210;-61
2022/08/03 07:06:13;;;;;;;1999.90;999.90;;;;;;;36.48;38.39;95466.19;5098659;28;20214;-63
2022/08/03 07:08:38;;;;;;;1999.90;999.90;;;;;;;36.18;39.25;95467.00;5098874;28;20204;-67
2022/08/03 07:11:04;;;;;;;1999.90;999.90;;;;;;;36.45;38.78;95464.53;5098506;28;20210;-66
2022/08/03 07:13:29;;;;;;;1999.90;999.90;;;;;;;36.38;37.30;95462.44;5098611;28;20207;-63
2022/08/03 07:15:55;;;;;;;1999.90;999.90;;;;;;;37.13;35.14;95462.16;5098683;28;20179;-61
2022/08/03 07:18:20;;;;;;;1999.90;999.90;;;;;;;36.81;36.92;95456.44;5098236;28;20215;-60
2022/08/03 07:20:45;;;;;;;1999.90;999.90;;;;;;;37.19;35.75;95465.59;5098211;28;20202;-59
2022/08/03 07:23:11;;;;;;;1999.90;999.90;;;;;;;37.48;35.46;95463.91;5098135;28;20245;-58
2022/08/03 07:25:36;;;;;;;1999.90;999.90;;;;;;;38.38;34.42;95463.16;5098933;28;20209;-67
2022/08/03 07:28:02;;;;;;;1999.90;999.90;;;;;;;38.70;33.99;95459.41;5098237;28;20211;-58
2022/08/03 07:30:27;;;;;;;1999.90;999.90;;;;;;;37.98;33.72;95456.84;5098056;28;20183;-60
2022/08/03 07:32:52;;;;;;;1999.90;999.90;;;;;;;36.94;35.90;95453.34;5098070;28;20218;-63
2022/08/03 07:35:18;;;;;;;1999.90;999.90;;;;;;;37.96;34.20;95450.22;5098710;28;20176;-59
2022/08/03 07:37:43;;;;;;;1999.90;999.90;;;;;;;36.83;34.61;95455.84;5098502;28;20182;-60
2022/08/03 07:40:09;;;;;;;1999.90;999.90;;;;;;;37.23;35.44;95443.16;5098079;28;20184;-59
2022/08/03 07:42:34;;;;;;;1999.90;999.90;;;;;;;38.21;33.72;95443.19;5097998;28;20187;-59
2022/08/03 07:44:59;;;;;;;1999.90;999.90;;;;;;;38.14;33.97;95452.56;5098410;28;20278;-61
2022/08/03 07:47:27;;;;;;;1999.90;999.90;;;;;;;37.78;34.24;95449.44;5098125;28;20183;-61
2022/08/03 07:49:53;;;;;;;1999.90;999.90;;;;;;;38.76;32.60;95445.63;5098282;28;20180;-62
2022/08/03 07:55:05;;;;;;;1999.90;999.90;;;;;;;37.27;33.98;95449.19;5116103;28;20213;-63
2022/08/03 07:57:30;;;;;;;1999.90;999.90;;;;;;;38.27;33.94;95440.81;5097843;28;20183;-62
2022/08/03 07:59:56;;;;;;;1999.90;999.90;;;;;;;38.56;33.20;95438.28;5097822;28;20184;-62
2022/08/03 08:02:21;;;;;;;1999.90;999.90;;;;;;;38.26;33.17;95441.41;5097620;28;20172;-65
2022/08/03 08:04:46;;;;;;;1999.90;999.90;;;;;;;38.39;32.77;95436.13;5097269;28;20187;-59
2022/08/03 08:07:12;;;;;;;1999.90;999.90;;;;;;;36.22;37.11;95443.84;5097672;28;20184;-59
2022/08/03 08:09:37;;;;;;;1999.90;999.90;;;;;;;37.34;36.16;95431.28;5097864;28;20200;-63
2022/08/03 08:12:03;;;;;;;1999.90;999.90;;;;;;;36.21;37.24;95430.94;5097436;28;20203;-64
2022/08/03 08:14:28;;;;;;;1999.90;999.90;;;;;;;36.79;37.55;95427.78;5097516;28;20306;-63
2022/08/03 08:16:54;;;;;;;1999.90;999.90;;;;;;;37.86;35.56;95430.16;5097294;28;20180;-67
2022/08/03 08:19:19;;;;;;;1999.90;999.90;;;;;;;37.21;35.58;95428.69;5097549;28;20191;-70
2022/08/03 08:21:44;;;;;;;1999.90;999.90;;;;;;;37.45;34.90;95430.84;5097350;28;20179;-65
2022/08/03 08:24:10;;;;;;;1999.90;999.90;;;;;;;37.72;33.86;95419.63;5097889;28;20180;-63
2022/08/03 08:26:35;;;;;;;1999.90;999.90;;;;;;;36.67;37.01;95433.09;5097354;28;20263;-68
2022/08/03 08:29:02;;;;;;;1999.90;999.90;;;;;;;37.79;34.45;95436.69;5097749;28;20188;-62
2022/08/03 08:31:27;;;;;;;1999.90;999.90;;;;;;;36.94;35.63;95426.94;5115199;28;20179;-61
2022/08/03 08:33:53;;;;;;;1999.90;999.90;;;;;;;37.14;34.40;95428.72;5097538;28;20203;-62
2022/08/03 08:36:18;;;;;;;1999.90;999.90;;;;;;;35.93;35.10;95443.31;5097274;28;20221;-62
2022/08/03 08:38:44;;;;;;;1999.90;999.90;;;;;;;36.60;34.21;95418.91;5096832;28;20226;-58
2022/08/03 08:41:11;;;;;;;1999.90;999.90;;;;;;;36.53;35.14;95428.97;5097089;28;20176;-61
2022/08/03 08:43:37;;;;;;;1999.90;999.90;;;;;;;36.75;34.56;95424.56;5115279;28;20184;-59
2022/08/03 08:46:07;;;;;;;1999.90;999.90;;;;;;;36.70;34.63;95419.06;5114932;28;20243;-63
2022/08/03 08:48:34;;;;;;;1999.90;999.90;;;;;;;38.13;32.88;95424.59;5097169;28;20219;-60
2022/08/03 08:51:01;;;;;;;1999.90;999.90;;;;;;;36.90;33.80;95427.34;5097024;28;20215;-58
2022/08/03 08:53:29;;;;;;;1999.90;999.90;;;;;;;36.45;34.08;95433.19;5097570;28;20204;-61
2022/08/03 08:55:59;;;;;;;1999.90;999.90;;;;;;;36.24;33.84;95424.13;5097061;28;20276;-59
2022/08/03 08:58:27;;;;;;;1999.90;999.90;;;;;;;35.63;35.21;95428.31;5096846;28;20199;-60
2022/08/03 09:00:52;;;;;;;1999.90;999.90;;;;;;;34.96;37.04;95423.28;5096748;28;20180;-60
2022/08/03 09:03:18;;;;;;;1999.90;999.90;;;;;;;37.36;32.47;95422.91;5096781;28;20191;-61
2022/08/03 09:05:43;;;;;;;1999.90;999.90;;;;;;;37.77;31.56;95421.47;5097080;28;20191;-65
2022/08/03 09:08:09;;;;;;;1999.90;999.90;;;;;;;36.51;33.19;95419.50;5096927;28;20317;-62
2022/08/03 09:10:35;;;;;;;1999.90;999.90;;;;;;;36.71;31.47;95421.34;5096559;28;20198;-61
2022/08/03 09:13:00;;;;;;;1999.90;999.90;;;;;;;36.22;32.82;95416.16;5096509;28;20175;-61
2022/08/03 09:15:31;;;;;;;1999.90;999.90;;;;;;;36.23;32.44;95425.44;5096698;28;20191;-63
2022/08/03 09:17:59;;;;;;;1999.90;999.90;;;;;;;36.95;31.39;95423.50;5095335;28;20183;-60
2022/08/03 09:20:26;;;;;;;1999.90;999.90;;;;;;;37.09;30.70;95421.16;5096585;28;20210;-61
2022/08/03 09:22:57;;;;;;;1999.90;999.90;;;;;;;35.95;33.16;95422.84;5096550;28;20172;-62
2022/08/03 09:25:31;;;;;;;1999.90;999.90;;;;;;;36.35;31.90;95418.03;5114413;28;20168;-65
2022/08/03 09:28:15;;;;;;;1999.90;999.90;;;;;;;35.95;32.91;95417.16;5096835;28;20225;-68
2022/08/03 09:30:43;;;;;;;1999.90;999.90;;;;;;;36.99;30.29;95414.56;5114465;28;20192;-66
2022/08/03 09:33:15;;;;;;;1999.90;999.90;;;;;;;36.22;31.53;95421.06;5096354;28;20233;-69
2022/08/03 09:35:47;;;;;;;1999.90;999.90;;;;;;;37.82;29.80;95418.38;5096371;28;20188;-69
2022/08/03 09:38:18;;;;;;;1999.90;999.90;;;;;;;36.70;31.59;95411.28;5114184;28;20179;-65
2022/08/03 09:40:44;;;;;;;1999.90;999.90;;;;;;;36.32;32.21;95419.94;5096196;28;20183;-61
2022/08/03 09:43:10;;;;;;;1999.90;999.90;;;;;;;36.18;31.68;95420.69;5096137;28;20184;-63
2022/08/03 09:45:37;;;;;;;1999.90;999.90;;;;;;;37.74;30.04;95414.09;5096240;28;20275;-60
2022/08/03 09:48:24;;;;;;;1999.90;999.90;;;;;;;39.29;28.21;95411.41;5096054;28;20179;-62
2022/08/03 09:50:54;;;;;;;1999.90;999.90;;;;;;;39.90;27.28;95417.00;5096124;28;20227;-61
2022/08/03 09:53:20;;;;;;;1999.90;999.90;;;;;;;38.15;28.59;95428.38;5114365;28;20195;-62
2022/08/03 09:55:56;;;;;;;1999.90;999.90;;;;;;;37.98;27.85;95414.03;5096139;28;20191;-62
2022/08/03 09:58:27;;;;;;;1999.90;999.90;;;;;;;39.02;27.98;95417.13;5096004;28;20177;-61
2022/08/03 10:00:57;;;;;;;1999.90;999.90;;;;;;;38.31;27.35;95418.31;5096619;28;20172;-62
2022/08/03 10:03:24;;;;;;;1999.90;999.90;;;;;;;38.56;27.28;95413.28;5096325;28;20183;-61
2022/08/03 10:05:49;;;;;;;1999.90;999.90;;;;;;;39.20;26.37;95404.28;5096541;28;20233;-60
2022/08/03 10:08:17;;;;;;;1999.90;999.90;;;;;;;40.25;25.15;95406.81;5095661;28;20188;-58
2022/08/03 10:10:44;;;;;;;1999.90;999.90;;;;;;;40.15;25.28;95412.50;5096261;28;20313;-60
2022/08/03 10:13:12;;;;;;;1999.90;999.90;;;;;;;38.88;26.78;95418.03;5095856;28;20184;-57
2022/08/03 10:15:39;;;;;;;1999.90;999.90;;;;;;;37.42;27.64;95414.88;5096011;28;20245;-61
2022/08/03 10:18:04;;;;;;;1999.90;999.90;;;;;;;38.26;27.26;95410.75;5095861;28;20266;-62
2022/08/03 10:20:35;;;;;;;1999.90;999.90;;;;;;;39.52;26.02;95411.09;5095843;28;20245;-60
2022/08/03 10:23:01;;;;;;;1999.90;999.90;;;;;;;37.99;27.92;95409.88;5095990;28;20199;-62
2022/08/03 10:25:29;;;;;;;1999.90;999.90;;;;;;;38.76;27.79;95409.25;5096085;28;20257;-61
2022/08/03 10:27:57;;;;;;;1999.90;999.90;;;;;;;39.39;27.43;95397.19;5095990;28;20247;-62
2022/08/03 10:30:26;;;;;;;1999.90;999.90;;;;;;;40.07;25.76;95396.81;5099203;28;20172;-60
2022/08/03 10:32:57;;;;;;;1999.90;999.90;;;;;;;40.02;24.40;95395.00;5098771;28;20188;-61
2022/08/03 10:35:24;;;;;;;1999.90;999.90;;;;;;;39.96;25.00;95391.66;5099422;28;20199;-61
2022/08/03 10:38:02;;;;;;;1999.90;999.90;;;;;;;40.87;24.94;95397.19;5099248;28;20226;-60
2022/08/03 10:40:30;;;;;;;1999.90;999.90;;;;;;;39.09;26.54;95399.13;5099476;28;20175;-69
2022/08/03 10:43:05;;;;;;;1999.90;999.90;;;;;;;38.31;27.12;95395.47;5099338;28;20180;-65
2022/08/03 10:45:34;;;;;;;1999.90;999.90;;;;;;;40.02;26.08;95397.88;5099362;28;20194;-66
2022/08/03 10:48:00;;;;;;;1999.90;999.90;;;;;;;39.86;25.14;95382.31;5099004;28;20179;-72
2022/08/03 10:50:27;;;;;;;1999.90;999.90;;;;;;;39.36;25.06;95398.38;5099321;28;20184;-69
2022/08/03 10:53:00;;;;;;;1999.90;999.90;;;;;;;39.45;25.12;95386.97;5099035;28;20179;-67
2022/08/03 10:58:35;;;;;;;1999.90;999.90;;;;;;;36.46;29.44;95378.50;5117026;28;20214;-63
2022/08/03 11:01:01;;;;;;;1999.90;999.90;;;;;;;36.83;28.94;95371.16;5098920;28;20192;-66
2022/08/03 11:03:27;;;;;;;1999.90;999.90;;;;;;;35.99;30.58;95374.84;5098938;28;20350;-61
2022/08/03 11:05:53;;;;;;;1999.90;999.90;;;;;;;35.88;29.65;95376.00;5098701;28;20207;-61
2022/08/03 11:08:26;;;;;;;1999.90;999.90;;;;;;;36.49;28.51;95365.22;5098926;28;20211;-59